createdAt,value
2017-09-20T00:01:11.398Z,41.63
2017-09-20T00:03:39.764Z,42.90
2017-09-20T00:06:08.119Z,41.77
2017-09-20T00:08:36.465Z,42.10
2017-09-20T00:11:04.839Z,42.33
2017-09-20T00:13:33.199Z,43.03
2017-09-20T00:16:01.583Z,42.40
2017-09-20T00:18:29.975Z,46.37
2017-09-20T00:20:58.360Z,45.50
2017-09-20T00:23:26.738Z,43.10
2017-09-20T00:25:55.118Z,41.30
2017-09-20T00:28:23.526Z,41.47
2017-09-20T00:30:51.915Z,39.43
2017-09-20T00:33:20.336Z,40.90
2017-09-20T00:35:48.692Z,40.50
2017-09-20T00:38:17.063Z,42.20
2017-09-20T00:40:45.438Z,38.67
2017-09-20T00:43:13.783Z,38.17
2017-09-20T00:45:42.147Z,38.67
2017-09-20T00:48:10.552Z,37.57
2017-09-20T00:50:38.904Z,35.50
2017-09-20T00:53:07.292Z,35.40
2017-09-20T00:55:35.640Z,37.70
2017-09-20T00:58:04.031Z,39.20
2017-09-20T01:00:32.666Z,40.17
2017-09-20T01:03:01.411Z,43.53
2017-09-20T01:05:29.789Z,44.67
2017-09-20T01:07:58.205Z,43.70
2017-09-20T01:10:26.574Z,43.27
2017-09-20T01:12:54.947Z,40.60
2017-09-20T01:15:23.391Z,37.63
2017-09-20T01:17:51.958Z,40.13
2017-09-20T01:20:32.439Z,40.10
2017-09-20T01:23:12.870Z,46.90
2017-09-20T01:25:41.215Z,43.30
2017-09-20T01:28:09.700Z,41.53
2017-09-20T01:30:38.079Z,41.77
2017-09-20T01:33:06.463Z,42.10
2017-09-20T01:35:34.879Z,41.00
2017-09-20T01:38:03.227Z,41.90
2017-09-20T01:40:31.663Z,41.10
2017-09-20T01:43:00.034Z,44.97
2017-09-20T01:45:28.382Z,41.50
2017-09-20T01:47:56.807Z,42.60
2017-09-20T01:50:25.175Z,42.27
2017-09-20T01:52:53.543Z,46.07
2017-09-20T01:55:21.927Z,47.63
2017-09-20T01:57:50.307Z,49.43
2017-09-20T02:00:18.683Z,45.17
2017-09-20T02:02:47.063Z,45.47
2017-09-20T02:05:15.431Z,47.73
2017-09-20T02:07:43.813Z,47.20
2017-09-20T02:10:12.203Z,47.83
2017-09-20T02:12:40.642Z,48.43
2017-09-20T02:15:09.000Z,44.30
2017-09-20T02:17:37.535Z,43.80
2017-09-20T02:20:05.919Z,45.43
2017-09-20T02:22:34.266Z,44.30
2017-09-20T02:25:02.651Z,49.60
2017-09-20T02:27:31.010Z,51.77
2017-09-20T02:29:59.390Z,50.80
2017-09-20T02:32:27.744Z,48.43
2017-09-20T02:34:56.110Z,48.00
2017-09-20T02:37:24.479Z,47.63
2017-09-20T02:39:52.908Z,49.17
2017-09-20T02:42:21.287Z,48.10
2017-09-20T02:44:49.631Z,50.47
2017-09-20T02:47:18.115Z,51.10
2017-09-20T02:49:46.467Z,52.80
2017-09-20T02:52:14.971Z,55.90
2017-09-20T02:54:43.404Z,53.27
2017-09-20T02:57:11.785Z,51.90
2017-09-20T02:59:40.141Z,52.17
2017-09-20T03:02:08.523Z,51.63
2017-09-20T03:04:36.875Z,51.00
2017-09-20T03:07:05.223Z,48.70
2017-09-20T03:09:33.643Z,50.90
2017-09-20T03:12:02.004Z,47.23
2017-09-20T03:14:30.426Z,46.30
2017-09-20T03:16:58.783Z,48.47
2017-09-20T03:19:27.152Z,46.30
2017-09-20T03:21:55.591Z,45.27
2017-09-20T03:24:23.987Z,48.43
2017-09-20T03:26:52.377Z,46.70
2017-09-20T03:29:20.883Z,46.20
2017-09-20T03:31:49.239Z,48.77
2017-09-20T03:34:17.582Z,44.90
2017-09-20T03:36:46.042Z,45.57
2017-09-20T03:39:14.396Z,42.63
2017-09-20T03:41:42.742Z,41.57
2017-09-20T03:44:11.115Z,41.70
2017-09-20T03:46:39.459Z,42.20
2017-09-20T03:49:07.855Z,41.67
2017-09-20T03:51:36.200Z,39.33
2017-09-20T03:54:04.572Z,39.57
2017-09-20T03:56:32.919Z,38.70
2017-09-20T03:59:01.299Z,39.33
2017-09-20T04:01:29.651Z,40.90
2017-09-20T04:03:58.057Z,39.43
2017-09-20T04:06:26.450Z,38.77
2017-09-20T04:08:54.790Z,38.00
2017-09-20T04:11:23.171Z,38.30
2017-09-20T04:13:51.529Z,38.40
2017-09-20T04:16:19.897Z,34.20
2017-09-20T04:18:48.243Z,34.50
2017-09-20T04:21:16.630Z,31.90
2017-09-20T04:23:44.971Z,33.30
2017-09-20T04:26:13.398Z,36.63
2017-09-20T04:28:41.866Z,35.23
2017-09-20T04:31:10.226Z,35.03
2017-09-20T04:33:38.572Z,36.20
2017-09-20T04:36:17.026Z,33.20
2017-09-20T04:38:45.393Z,37.10
2017-09-20T04:41:13.763Z,33.10
2017-09-20T04:43:42.132Z,34.73
2017-09-20T04:46:10.495Z,34.77
2017-09-20T04:48:38.894Z,36.20
2017-09-20T04:51:07.227Z,35.83
2017-09-20T04:53:35.575Z,38.60
2017-09-20T04:56:03.915Z,36.70
2017-09-20T04:58:32.271Z,36.83
2017-09-20T05:01:00.649Z,37.47
2017-09-20T05:03:28.995Z,36.03
2017-09-20T05:05:57.363Z,31.73
2017-09-20T05:08:25.702Z,36.90
2017-09-20T05:10:54.070Z,33.43
2017-09-20T05:13:22.411Z,36.40
2017-09-20T05:15:50.795Z,35.63
2017-09-20T05:18:19.131Z,39.00
2017-09-20T05:20:47.504Z,37.37
2017-09-20T05:23:15.847Z,38.03
2017-09-20T05:25:44.182Z,37.53
2017-09-20T05:28:12.530Z,37.57
2017-09-20T05:30:40.907Z,39.13
2017-09-20T05:33:09.250Z,36.70
2017-09-20T05:35:37.590Z,35.73
2017-09-20T05:38:05.982Z,34.57
2017-09-20T05:40:34.340Z,33.33
2017-09-20T05:43:02.915Z,31.53
2017-09-20T05:45:31.355Z,32.70
2017-09-20T05:47:59.730Z,32.90
2017-09-20T05:50:28.093Z,31.40
2017-09-20T05:52:56.604Z,29.93
2017-09-20T05:55:24.947Z,30.13
2017-09-20T05:57:53.290Z,28.23
2017-09-20T06:00:21.639Z,27.77
2017-09-20T06:02:50.110Z,21.70
2017-09-20T06:05:18.455Z,24.23
2017-09-20T06:07:46.790Z,23.87
2017-09-20T06:10:15.143Z,28.60
2017-09-20T06:12:43.482Z,24.70
2017-09-20T06:15:11.852Z,22.20
2017-09-20T06:17:40.255Z,27.53
2017-09-20T06:20:08.628Z,26.43
2017-09-20T06:22:36.979Z,29.40
2017-09-20T06:25:05.354Z,23.37
2017-09-20T06:27:33.695Z,23.40
2017-09-20T06:30:02.195Z,23.77
2017-09-20T06:32:30.530Z,20.17
2017-09-20T06:34:58.915Z,18.63
2017-09-20T06:37:27.242Z,21.13
2017-09-20T06:39:55.651Z,22.40
2017-09-20T06:42:24.142Z,21.17
2017-09-20T06:44:52.477Z,17.00
2017-09-20T06:47:20.822Z,17.23
2017-09-20T06:49:49.195Z,15.20
2017-09-20T06:52:17.577Z,15.43
2017-09-20T06:54:45.930Z,17.20
2017-09-20T06:57:14.388Z,15.53
2017-09-20T06:59:42.945Z,10.80
2017-09-20T07:02:11.295Z,13.80
2017-09-20T07:04:39.677Z,13.20
2017-09-20T07:07:08.031Z,12.80
2017-09-20T07:09:36.384Z,12.27
2017-09-20T07:12:04.728Z,9.63
2017-09-20T07:14:33.070Z,9.10
2017-09-20T07:17:01.455Z,9.30
2017-09-20T07:19:29.839Z,10.50
2017-09-20T07:21:58.203Z,9.80
2017-09-20T07:24:26.678Z,10.70
2017-09-20T07:26:55.151Z,10.60
2017-09-20T07:29:23.499Z,10.03
2017-09-20T07:31:51.843Z,10.67
2017-09-20T07:34:20.187Z,8.47
2017-09-20T07:36:48.538Z,9.47
2017-09-20T07:39:16.928Z,9.43
2017-09-20T07:41:45.275Z,9.37
2017-09-20T07:44:13.750Z,8.90
2017-09-20T07:46:42.159Z,8.90
2017-09-20T07:49:10.507Z,8.53
2017-09-20T07:51:38.911Z,9.33
2017-09-20T07:54:07.258Z,9.37
2017-09-20T07:56:35.594Z,8.53
2017-09-20T07:59:03.958Z,8.00
2017-09-20T08:01:32.307Z,9.73
2017-09-20T08:04:00.655Z,7.90
2017-09-20T08:06:28.994Z,7.03
2017-09-20T08:08:57.396Z,7.27
2017-09-20T08:11:25.749Z,8.20
2017-09-20T08:13:54.120Z,6.80
2017-09-20T08:16:22.478Z,7.27
2017-09-20T08:18:50.818Z,6.70
2017-09-20T08:21:19.183Z,6.10
2017-09-20T08:23:47.519Z,6.40
2017-09-20T08:26:15.879Z,5.70
2017-09-20T08:28:44.228Z,5.50
2017-09-20T08:31:12.604Z,4.73
2017-09-20T08:33:40.952Z,5.17
2017-09-20T08:36:09.283Z,5.30
2017-09-20T08:38:37.613Z,6.47
2017-09-20T08:41:05.985Z,6.57
2017-09-20T08:43:34.315Z,4.77
2017-09-20T08:46:02.654Z,5.97
2017-09-20T08:48:30.994Z,4.80
2017-09-20T08:50:59.370Z,3.13
2017-09-20T08:53:27.752Z,3.80
2017-09-20T08:55:56.110Z,3.90
2017-09-20T08:58:24.452Z,3.77
2017-09-20T09:00:52.786Z,4.20
2017-09-20T09:03:21.111Z,4.40
2017-09-20T09:05:49.585Z,4.20
2017-09-20T09:08:17.918Z,4.90
2017-09-20T09:10:46.255Z,4.80
2017-09-20T09:13:14.585Z,4.90
2017-09-20T09:15:42.923Z,5.10
2017-09-20T09:18:11.298Z,5.20
2017-09-20T09:20:39.690Z,4.80
2017-09-20T09:23:08.054Z,4.70
2017-09-20T09:25:36.702Z,6.20
2017-09-20T09:28:09.345Z,5.50
2017-09-20T09:30:39.025Z,5.97
2017-09-20T09:33:11.209Z,7.00
2017-09-20T09:35:44.401Z,7.70
2017-09-20T09:38:19.818Z,7.60
2017-09-20T09:40:49.696Z,6.43
2017-09-20T09:43:21.998Z,6.77
2017-09-20T09:45:53.629Z,4.73
2017-09-20T09:48:25.540Z,5.17
2017-09-20T09:50:57.919Z,5.00
2017-09-20T09:53:26.709Z,5.17
2017-09-20T09:55:56.573Z,4.97
2017-09-20T09:58:25.526Z,5.20
2017-09-20T10:00:58.673Z,3.73
2017-09-20T10:03:27.391Z,4.03
2017-09-20T10:05:59.165Z,4.47
2017-09-20T10:08:33.609Z,3.93
2017-09-20T10:11:02.983Z,3.80
2017-09-20T10:13:32.505Z,3.93
2017-09-20T10:16:03.297Z,3.77
2017-09-20T10:18:34.004Z,3.00
2017-09-20T10:21:26.235Z,2.87
2017-09-20T10:23:54.858Z,3.40
2017-09-20T10:26:29.798Z,4.23
2017-09-20T10:29:00.614Z,3.93
2017-09-20T10:31:29.585Z,4.43
2017-09-20T10:33:59.057Z,3.43
2017-09-20T10:36:31.134Z,3.40
2017-09-20T10:39:01.064Z,3.43
2017-09-20T10:41:30.077Z,3.27
2017-09-20T10:43:58.406Z,3.80
2017-09-20T10:46:26.797Z,3.60
2017-09-20T10:48:55.294Z,3.30
2017-09-20T10:51:23.634Z,3.90
2017-09-20T10:53:52.007Z,3.40
2017-09-20T10:56:20.335Z,4.10
2017-09-20T10:58:48.722Z,4.90
2017-09-20T11:01:17.066Z,4.63
2017-09-20T11:03:57.132Z,4.83
2017-09-20T11:06:32.402Z,5.30
2017-09-20T11:09:00.734Z,5.50
2017-09-20T11:11:29.078Z,5.23
2017-09-20T11:13:57.421Z,4.93
2017-09-20T11:16:25.786Z,5.17
2017-09-20T11:18:54.129Z,6.73
2017-09-20T11:21:22.482Z,7.30
2017-09-20T11:23:50.906Z,6.07
2017-09-20T11:26:19.238Z,6.77
2017-09-20T11:28:47.579Z,6.00
2017-09-20T11:31:15.911Z,6.40
2017-09-20T11:33:44.255Z,6.90
2017-09-20T11:36:12.623Z,6.90
2017-09-20T11:38:40.966Z,6.77
2017-09-20T11:41:09.310Z,7.50
2017-09-20T11:43:37.646Z,6.27
2017-09-20T11:46:05.988Z,8.13
2017-09-20T11:48:34.335Z,6.70
2017-09-20T11:51:02.695Z,6.27
2017-09-20T11:53:31.934Z,6.63
2017-09-20T11:56:00.306Z,7.00
2017-09-20T11:58:28.642Z,5.97
2017-09-20T12:00:56.982Z,6.20
2017-09-20T12:03:25.352Z,6.10
2017-09-20T12:05:53.690Z,6.47
2017-09-20T12:08:22.027Z,6.30
2017-09-20T12:10:50.380Z,5.30
2017-09-20T12:13:18.915Z,6.23
2017-09-20T12:15:47.252Z,5.87
2017-09-20T12:18:15.596Z,6.67
2017-09-20T12:20:43.930Z,6.30
2017-09-20T12:23:12.267Z,5.80
2017-09-20T12:25:40.731Z,5.40
2017-09-20T12:28:09.083Z,5.77
2017-09-20T12:30:37.783Z,6.50
2017-09-20T12:33:06.112Z,6.43
2017-09-20T12:35:34.442Z,6.30
2017-09-20T12:38:02.819Z,5.83
2017-09-20T12:40:31.151Z,6.13
2017-09-20T12:42:59.488Z,6.07
2017-09-20T12:45:27.835Z,5.90
2017-09-20T12:48:09.006Z,5.87
2017-09-20T12:50:37.479Z,4.20
2017-09-20T12:53:05.811Z,4.60
2017-09-20T12:55:34.150Z,4.90
2017-09-20T12:58:02.490Z,5.87
2017-09-20T13:00:30.855Z,5.40
2017-09-20T13:02:59.190Z,5.33
2017-09-20T13:05:27.523Z,5.60
2017-09-20T13:07:55.926Z,5.33
2017-09-20T13:10:24.292Z,5.60
2017-09-20T13:12:52.627Z,6.20
2017-09-20T13:15:20.958Z,5.20
2017-09-20T13:17:49.294Z,6.53
2017-09-20T13:20:17.633Z,6.77
2017-09-20T13:22:46.065Z,6.37
2017-09-20T13:25:14.936Z,7.63
2017-09-20T13:27:43.368Z,6.93
2017-09-20T13:30:11.732Z,6.97
2017-09-20T13:32:40.101Z,8.50
2017-09-20T13:35:08.474Z,7.63
2017-09-20T13:37:37.707Z,7.80
2017-09-20T13:40:06.084Z,8.07
2017-09-20T13:42:34.683Z,7.17
2017-09-20T13:45:03.050Z,7.60
2017-09-20T13:47:31.395Z,8.80
2017-09-20T13:49:59.747Z,7.60
2017-09-20T13:52:28.154Z,8.10
2017-09-20T13:54:56.499Z,8.23
2017-09-20T13:57:24.866Z,9.70
2017-09-20T13:59:53.213Z,8.80
2017-09-20T14:02:21.580Z,9.17
2017-09-20T14:04:49.939Z,10.20
2017-09-20T14:07:18.324Z,9.67
2017-09-20T14:09:46.667Z,10.23
2017-09-20T14:12:15.019Z,9.23
2017-09-20T14:14:43.362Z,9.73
2017-09-20T14:17:11.727Z,9.70
2017-09-20T14:19:40.062Z,11.13
2017-09-20T14:22:08.411Z,11.67
2017-09-20T14:24:36.788Z,12.00
2017-09-20T14:27:05.165Z,9.80
2017-09-20T14:29:33.534Z,10.33
2017-09-20T14:32:02.778Z,9.53
2017-09-20T14:34:31.147Z,10.33
2017-09-20T14:36:59.545Z,12.20
2017-09-20T14:39:27.883Z,12.83
2017-09-20T14:41:56.278Z,12.97
2017-09-20T14:44:24.674Z,9.47
2017-09-20T14:46:53.011Z,11.40
2017-09-20T14:49:21.366Z,11.60
2017-09-20T14:51:49.745Z,11.00
2017-09-20T14:54:18.091Z,10.30
2017-09-20T14:56:46.471Z,10.23
2017-09-20T14:59:14.819Z,10.47
2017-09-20T15:01:43.172Z,10.40
2017-09-20T15:04:11.530Z,11.57
2017-09-20T15:06:39.999Z,10.40
2017-09-20T15:09:08.348Z,10.83
2017-09-20T15:11:36.767Z,11.00
2017-09-20T15:14:05.102Z,10.70
2017-09-20T15:16:33.611Z,9.97
2017-09-20T15:19:02.051Z,11.60
2017-09-20T15:21:30.401Z,10.57
2017-09-20T15:23:58.870Z,11.93
2017-09-20T15:26:27.218Z,10.30
2017-09-20T15:28:55.598Z,11.17
2017-09-20T15:31:23.954Z,11.10
2017-09-20T15:33:52.355Z,11.50
2017-09-20T15:36:20.691Z,10.80
2017-09-20T15:38:49.039Z,11.20
2017-09-20T15:41:17.418Z,12.30
2017-09-20T15:43:46.635Z,13.07
2017-09-20T15:46:15.032Z,12.33
2017-09-20T15:48:43.382Z,12.57
2017-09-20T15:51:11.767Z,13.07
2017-09-20T15:53:40.118Z,12.63
2017-09-20T15:56:08.495Z,14.27
2017-09-20T15:58:36.848Z,12.30
2017-09-20T16:01:13.974Z,12.57
2017-09-20T16:03:42.351Z,12.90
2017-09-20T16:06:10.727Z,13.40
2017-09-20T16:08:39.083Z,13.87
2017-09-20T16:11:07.467Z,13.00
2017-09-20T16:13:54.586Z,13.33
2017-09-20T16:16:22.964Z,14.10
2017-09-20T16:18:51.317Z,12.53
2017-09-20T16:21:19.661Z,13.20
2017-09-20T16:23:48.004Z,12.77
2017-09-20T16:26:16.379Z,12.60
2017-09-20T16:28:44.789Z,12.37
2017-09-20T16:31:13.126Z,13.10
2017-09-20T16:33:41.547Z,12.90
2017-09-20T16:36:09.922Z,12.80
2017-09-20T16:38:38.318Z,13.20
2017-09-20T16:41:06.722Z,12.90
2017-09-20T16:43:35.068Z,13.70
2017-09-20T16:46:03.438Z,12.77
2017-09-20T16:48:31.785Z,13.33
2017-09-20T16:51:00.144Z,12.97
2017-09-20T16:53:28.502Z,13.60
2017-09-20T16:55:56.854Z,14.17
2017-09-20T16:58:25.199Z,13.50
2017-09-20T17:00:53.543Z,13.97
2017-09-20T17:03:22.055Z,13.73
2017-09-20T17:05:50.408Z,13.50
2017-09-20T17:08:18.755Z,12.70
2017-09-20T17:10:47.126Z,12.33
2017-09-20T17:13:15.492Z,12.20
2017-09-20T17:15:43.858Z,12.80
2017-09-20T17:18:12.242Z,14.03
2017-09-20T17:20:40.606Z,13.70
2017-09-20T17:23:08.946Z,14.50
2017-09-20T17:25:37.321Z,15.10
2017-09-20T17:28:05.667Z,15.40
2017-09-20T17:30:34.024Z,16.17
2017-09-20T17:33:02.362Z,15.63
2017-09-20T17:35:30.751Z,16.03
2017-09-20T17:37:59.110Z,17.80
2017-09-20T17:40:27.485Z,16.80
2017-09-20T17:42:55.823Z,18.03
2017-09-20T17:45:24.186Z,20.27
2017-09-20T17:47:52.560Z,18.07
2017-09-20T17:50:21.171Z,17.30
2017-09-20T17:55:23.943Z,19.47
2017-09-20T17:57:52.286Z,16.60
2017-09-20T18:00:21.731Z,16.23
2017-09-20T18:02:50.066Z,16.63
2017-09-20T18:05:18.446Z,16.70
2017-09-20T18:07:46.806Z,17.37
2017-09-20T18:10:15.153Z,15.83
2017-09-20T18:12:43.493Z,16.40
2017-09-20T18:15:11.844Z,17.00
2017-09-20T18:17:40.203Z,16.90
2017-09-20T18:20:08.553Z,15.33
2017-09-20T18:22:36.903Z,17.33
2017-09-20T18:25:05.246Z,16.73
2017-09-20T18:27:33.627Z,16.33
2017-09-20T18:30:01.976Z,17.10
2017-09-20T18:32:30.320Z,16.87
2017-09-20T18:34:58.662Z,17.27
2017-09-20T18:37:27.016Z,16.87
2017-09-20T18:39:55.354Z,17.10
2017-09-20T18:42:23.702Z,18.50
2017-09-20T18:44:52.077Z,17.70
2017-09-20T18:47:20.416Z,16.53
2017-09-20T18:49:48.797Z,16.53
2017-09-20T18:52:17.181Z,15.90
2017-09-20T18:54:45.782Z,17.27
2017-09-20T18:57:14.145Z,16.50
2017-09-20T18:59:42.484Z,15.57
2017-09-20T19:02:10.834Z,15.90
2017-09-20T19:04:39.170Z,16.77
2017-09-20T19:07:07.513Z,16.00
2017-09-20T19:09:36.070Z,16.57
2017-09-20T19:12:04.418Z,17.90
2017-09-20T19:14:32.786Z,23.77
2017-09-20T19:17:01.144Z,17.30
2017-09-20T19:19:29.527Z,17.33
2017-09-20T19:21:57.878Z,17.13
2017-09-20T19:24:26.236Z,16.93
2017-09-20T19:26:54.613Z,17.30
2017-09-20T19:29:22.951Z,17.00
2017-09-20T19:31:51.297Z,17.07
2017-09-20T19:34:19.711Z,17.40
2017-09-20T19:36:48.122Z,15.40
2017-09-20T19:39:16.475Z,15.87
2017-09-20T19:41:44.920Z,15.20
2017-09-20T19:44:13.256Z,15.63
2017-09-20T19:46:41.710Z,16.70
2017-09-20T19:49:10.056Z,14.93
2017-09-20T19:51:38.440Z,15.70
2017-09-20T19:54:06.795Z,16.70
2017-09-20T19:56:35.146Z,15.40
2017-09-20T19:59:03.525Z,16.83
2017-09-20T20:01:31.882Z,16.20
2017-09-20T20:04:01.274Z,15.03
2017-09-20T20:06:30.142Z,14.77
2017-09-20T20:08:58.527Z,15.77
2017-09-20T20:11:26.875Z,18.00
2017-09-20T20:13:55.219Z,16.00
2017-09-20T20:16:23.611Z,15.17
2017-09-20T20:18:51.968Z,16.03
2017-09-20T20:21:20.311Z,16.00
2017-09-20T20:23:48.744Z,18.20
2017-09-20T20:26:17.107Z,16.50
2017-09-20T20:28:45.455Z,17.23
2017-09-20T20:31:13.814Z,17.40
2017-09-20T20:33:42.161Z,19.63
2017-09-20T20:36:10.541Z,17.63
2017-09-20T20:38:38.890Z,16.17
2017-09-20T20:41:07.255Z,17.00
2017-09-20T20:43:35.631Z,16.80
2017-09-20T20:46:04.011Z,16.27
2017-09-20T20:48:32.362Z,17.97
2017-09-20T20:51:00.700Z,16.17
2017-09-20T20:53:29.042Z,16.00
2017-09-20T20:55:57.415Z,16.37
2017-09-20T20:58:25.773Z,16.60
2017-09-20T21:00:54.129Z,16.90
2017-09-20T21:03:22.464Z,14.60
2017-09-20T21:05:50.806Z,17.17
2017-09-20T21:08:19.174Z,16.80
2017-09-20T21:10:47.529Z,16.33
2017-09-20T21:13:15.863Z,17.60
2017-09-20T21:15:44.247Z,18.67
2017-09-20T21:18:12.602Z,17.40
2017-09-20T21:20:40.983Z,17.40
2017-09-20T21:23:09.347Z,15.03
2017-09-20T21:25:37.702Z,15.20
2017-09-20T21:28:06.104Z,15.87
2017-09-20T21:30:34.443Z,16.20
2017-09-20T21:33:03.265Z,14.93
2017-09-20T21:35:31.602Z,16.57
2017-09-20T21:37:59.942Z,15.70
2017-09-20T21:40:28.379Z,14.60
2017-09-20T21:42:56.771Z,15.53
2017-09-20T21:45:25.105Z,16.50
2017-09-20T21:47:53.551Z,15.90
2017-09-20T21:50:21.893Z,15.50
2017-09-20T21:52:50.239Z,15.80
2017-09-20T21:55:18.583Z,16.30
2017-09-20T21:57:47.018Z,17.67
2017-09-20T22:00:15.350Z,17.33
2017-09-20T22:02:43.692Z,16.80
2017-09-20T22:05:12.059Z,16.17
2017-09-20T22:07:40.400Z,15.73
2017-09-20T22:10:08.766Z,17.57
2017-09-20T22:12:37.166Z,17.70
2017-09-20T22:15:17.638Z,17.90
2017-09-20T22:18:03.895Z,16.80
2017-09-20T22:20:50.315Z,17.60
2017-09-20T22:23:36.696Z,19.00
2017-09-20T22:26:23.022Z,17.13
2017-09-20T22:28:57.369Z,17.40
2017-09-20T22:31:25.737Z,17.30
2017-09-20T22:33:54.078Z,16.63
2017-09-20T22:36:22.547Z,15.97
2017-09-20T22:38:50.883Z,17.70
2017-09-20T22:41:19.290Z,16.30
2017-09-20T22:43:47.659Z,19.63
2017-09-20T22:46:16.002Z,17.20
2017-09-20T22:48:44.344Z,17.80
2017-09-20T22:51:12.716Z,17.07
2017-09-20T22:53:41.086Z,16.63
2017-09-20T22:56:09.450Z,15.70
2017-09-20T22:58:37.832Z,15.20
2017-09-20T23:01:06.167Z,16.67
2017-09-20T23:03:34.515Z,16.67
2017-09-20T23:06:02.856Z,15.50
2017-09-20T23:08:31.216Z,15.70
2017-09-20T23:10:59.579Z,14.93
2017-09-20T23:13:27.918Z,15.50
2017-09-20T23:15:56.299Z,16.50
2017-09-20T23:18:24.647Z,16.57
2017-09-20T23:20:52.982Z,17.20
2017-09-20T23:23:21.343Z,18.30
2017-09-20T23:25:49.708Z,17.67
2017-09-20T23:28:18.215Z,18.07
2017-09-20T23:30:46.603Z,18.27
2017-09-20T23:33:14.958Z,18.20
2017-09-20T23:35:43.299Z,20.10
2017-09-20T23:38:11.644Z,18.27
2017-09-20T23:40:40.003Z,17.80
2017-09-20T23:43:08.342Z,19.50
2017-09-20T23:45:36.712Z,19.70
2017-09-20T23:48:05.059Z,19.23
2017-09-20T23:50:33.395Z,18.03
2017-09-20T23:53:01.802Z,18.73
2017-09-20T23:55:30.145Z,20.50
2017-09-20T23:57:58.547Z,18.63
